createdAt,value
2023-04-05T00:00:01.427Z,101370.22
2023-04-05T00:02:30.303Z,101369.53
2023-04-05T00:04:57.879Z,101374.84
2023-04-05T00:07:26.736Z,101370.66
2023-04-05T00:09:54.226Z,101369.84
2023-04-05T00:12:21.464Z,101368.31
2023-04-05T00:14:48.825Z,101365.72
2023-04-05T00:17:15.872Z,101359.59
2023-04-05T00:19:43.052Z,101354.44
2023-04-05T00:22:11.257Z,101352.72
2023-04-05T00:24:43.812Z,101354.59
2023-04-05T00:27:10.809Z,101346.72
2023-04-05T00:29:37.798Z,101352.03
2023-04-05T00:32:05.307Z,101351.19
2023-04-05T00:34:34.037Z,101349.56
2023-04-05T00:37:01.179Z,101346.19
2023-04-05T00:39:28.190Z,101339.09
2023-04-05T00:41:55.401Z,101340.19
2023-04-05T00:44:22.438Z,101342.94
2023-04-05T00:46:49.413Z,101335.91
2023-04-05T00:49:16.929Z,101336.78
2023-04-05T00:51:44.783Z,101330.69
2023-04-05T00:54:12.134Z,101321.88
2023-04-05T00:56:40.378Z,101326.41
2023-04-05T00:59:07.438Z,101335.25
2023-04-05T01:01:38.375Z,101331.78
2023-04-05T01:04:05.966Z,101329.19
2023-04-05T01:07:17.636Z,101325.63
2023-04-05T01:09:57.326Z,101322.16
2023-04-05T01:12:27.695Z,101322.16
2023-04-05T01:14:55.906Z,101315.88
2023-04-05T01:17:24.815Z,101311.44
2023-04-05T01:19:54.679Z,101308.91
2023-04-05T01:22:42.355Z,101315.16
2023-04-05T01:25:46.768Z,101308.13
2023-04-05T01:28:22.686Z,101300.94
2023-04-05T01:30:55.037Z,101298.38
2023-04-05T01:33:49.441Z,101285.03
2023-04-05T01:36:18.496Z,101291.13
2023-04-05T01:38:50.006Z,101285.88
2023-04-05T01:41:17.280Z,101285.03
2023-04-05T01:43:44.213Z,101276.06
2023-04-05T01:46:11.273Z,101273.53
2023-04-05T01:48:38.268Z,101272.63
2023-04-05T01:51:05.507Z,101264.66
2023-04-05T01:53:32.461Z,101265.59
2023-04-05T01:56:02.750Z,101256.78
2023-04-05T01:58:29.974Z,101262.09
2023-04-05T02:00:57.719Z,101258.50
2023-04-05T02:03:25.072Z,101256.78
2023-04-05T02:05:52.369Z,101246.19
2023-04-05T02:08:19.466Z,101242.56
2023-04-05T02:10:46.508Z,101242.50
2023-04-05T02:13:14.107Z,101244.16
2023-04-05T02:15:41.452Z,101246.81
2023-04-05T02:18:09.756Z,101239.72
2023-04-05T02:20:36.717Z,101235.25
2023-04-05T02:23:03.815Z,101240.53
2023-04-05T02:25:30.841Z,101233.53
2023-04-05T02:27:57.809Z,101232.53
2023-04-05T02:30:24.746Z,101228.91
2023-04-05T02:32:51.769Z,101226.25
2023-04-05T02:35:18.836Z,101226.25
2023-04-05T02:37:45.789Z,101217.47
2023-04-05T02:40:15.270Z,101222.78
2023-04-05T02:42:42.547Z,101209.50
2023-04-05T02:45:09.896Z,101205.72
2023-04-05T02:47:36.913Z,101199.66
2023-04-05T02:50:04.251Z,101196.03
2023-04-05T02:52:32.643Z,101193.47
2023-04-05T02:54:59.595Z,101198.69
2023-04-05T02:57:27.043Z,101188.94
2023-04-05T02:59:54.028Z,101190.72
2023-04-05T03:02:21.362Z,101181.84
2023-04-05T03:04:48.311Z,101187.13
2023-04-05T03:07:18.862Z,101184.31
2023-04-05T03:09:46.823Z,101179.94
2023-04-05T03:12:14.132Z,101172.78
2023-04-05T03:14:41.716Z,101171.81
2023-04-05T03:17:08.799Z,101170.03
2023-04-05T03:19:35.942Z,101166.44
2023-04-05T03:22:02.885Z,101160.09
2023-04-05T03:24:29.860Z,101154.78
2023-04-05T03:26:57.042Z,101151.16
2023-04-05T03:29:23.998Z,101142.28
2023-04-05T03:31:51.284Z,101143.22
2023-04-05T03:34:18.362Z,101135.34
2023-04-05T03:36:46.110Z,101133.38
2023-04-05T03:39:13.756Z,101136.03
2023-04-05T03:41:41.442Z,101128.06
2023-04-05T03:44:09.445Z,101130.72
2023-04-05T03:46:38.380Z,101125.31
2023-04-05T03:49:06.650Z,101130.53
2023-04-05T03:51:33.820Z,101124.19
2023-04-05T03:54:00.836Z,101125.91
2023-04-05T03:56:27.918Z,101116.13
2023-04-05T03:58:55.196Z,101125.78
2023-04-05T04:01:22.695Z,101115.09
2023-04-05T04:03:49.775Z,101114.19
2023-04-05T04:06:19.211Z,101114.25
2023-04-05T04:08:46.759Z,101114.19
2023-04-05T04:11:13.763Z,101115.00
2023-04-05T04:13:41.467Z,101113.31
2023-04-05T04:16:08.542Z,101109.69
2023-04-05T04:18:35.545Z,101106.22
2023-04-05T04:21:07.311Z,101106.09
2023-04-05T04:23:35.041Z,101105.94
2023-04-05T04:26:02.071Z,101104.22
2023-04-05T04:28:29.875Z,101100.44
2023-04-05T04:30:56.996Z,101095.13
2023-04-05T04:33:24.453Z,101098.84
2023-04-05T04:35:55.125Z,101093.84
2023-04-05T04:38:22.076Z,101082.84
2023-04-05T04:40:51.161Z,101087.78
2023-04-05T04:43:18.114Z,101077.91
2023-04-05T04:45:48.663Z,101081.34
2023-04-05T04:48:17.058Z,101098.59
2023-04-05T04:50:45.132Z,101090.34
2023-04-05T04:53:13.966Z,101086.81
2023-04-05T04:55:43.691Z,101081.69
2023-04-05T04:58:12.820Z,101088.63
2023-04-05T05:00:41.189Z,101085.09
2023-04-05T05:03:08.903Z,101081.50
2023-04-05T05:05:35.897Z,101088.53
2023-04-05T05:08:02.937Z,101086.63
2023-04-05T05:10:29.859Z,101087.31
2023-04-05T05:12:56.912Z,101077.44
2023-04-05T05:15:23.874Z,101080.97
2023-04-05T05:17:53.961Z,101079.63
2023-04-05T05:20:21.765Z,101079.16
2023-04-05T05:22:48.924Z,101079.66
2023-04-05T05:25:15.871Z,101075.78
2023-04-05T05:27:42.911Z,101081.56
2023-04-05T05:30:10.523Z,101071.69
2023-04-05T05:32:37.517Z,101073.22
2023-04-05T05:35:04.820Z,101073.03
2023-04-05T05:37:33.289Z,101065.81
2023-04-05T05:40:00.624Z,101073.78
2023-04-05T05:42:27.719Z,101066.69
2023-04-05T05:44:54.898Z,101062.03
2023-04-05T05:47:22.170Z,101067.13
2023-04-05T05:49:50.036Z,101046.66
2023-04-05T05:52:17.114Z,101041.03
2023-04-05T05:54:44.201Z,101041.88
2023-04-05T05:57:11.316Z,101040.91
2023-04-05T05:59:38.266Z,101045.09
2023-04-05T06:02:05.457Z,101037.88
2023-04-05T06:04:32.528Z,101041.28
2023-04-05T06:06:59.564Z,101036.75
2023-04-05T06:09:27.170Z,101036.50
2023-04-05T06:11:56.822Z,101037.28
2023-04-05T06:14:25.649Z,101033.66
2023-04-05T06:16:53.005Z,101033.47
2023-04-05T06:19:19.975Z,101036.88
2023-04-05T06:21:47.007Z,101031.38
2023-04-05T06:24:14.013Z,101027.75
2023-04-05T06:26:41.622Z,101025.84
2023-04-05T06:29:08.688Z,101024.00
2023-04-05T06:31:36.514Z,101027.84
2023-04-05T06:34:03.856Z,101025.84
2023-04-05T06:36:34.817Z,101023.47
2023-04-05T06:39:02.032Z,101028.44
2023-04-05T06:41:29.103Z,101020.53
2023-04-05T06:43:56.868Z,101017.41
2023-04-05T06:46:24.747Z,101019.84
2023-04-05T06:48:52.845Z,101019.66
2023-04-05T06:51:21.263Z,101019.38
2023-04-05T06:53:48.215Z,101030.66
2023-04-05T06:56:15.171Z,101023.53
2023-04-05T06:58:42.204Z,101028.75
2023-04-05T07:01:09.320Z,101027.78
2023-04-05T07:03:36.606Z,101019.81
2023-04-05T07:06:04.681Z,101017.06
2023-04-05T07:08:33.117Z,101018.69
2023-04-05T07:11:00.233Z,101015.16
2023-04-05T07:13:27.656Z,101012.38
2023-04-05T07:16:01.708Z,101008.78
2023-04-05T07:18:30.449Z,101004.41
2023-04-05T07:21:02.350Z,101014.97
2023-04-05T07:23:29.942Z,101015.81
2023-04-05T07:26:05.398Z,101012.19
2023-04-05T07:28:33.945Z,101012.19
2023-04-05T07:31:01.323Z,101009.47
2023-04-05T07:33:28.759Z,101012.84
2023-04-05T07:35:57.286Z,100997.84
2023-04-05T07:38:24.964Z,100997.75
2023-04-05T07:40:52.229Z,100998.59
2023-04-05T07:43:20.048Z,100996.78
2023-04-05T07:45:47.230Z,101002.97
2023-04-05T07:48:14.239Z,101002.88
2023-04-05T07:50:42.834Z,100998.50
2023-04-05T07:53:09.997Z,101002.88
2023-04-05T07:55:40.365Z,100998.50
2023-04-05T07:58:07.413Z,101004.56
2023-04-05T08:00:34.487Z,100991.38
2023-04-05T08:03:02.576Z,100995.66
2023-04-05T08:05:29.889Z,100994.69
2023-04-05T08:07:58.490Z,100998.31
2023-04-05T08:10:26.545Z,100995.53
2023-04-05T08:12:54.005Z,100989.34
2023-04-05T08:15:21.463Z,100986.69
2023-04-05T08:17:48.715Z,100989.28
2023-04-05T08:20:16.091Z,100989.28
2023-04-05T08:22:43.565Z,100980.31
2023-04-05T08:25:11.039Z,100989.16
2023-04-05T08:27:38.084Z,100981.19
2023-04-05T08:30:06.598Z,100984.69
2023-04-05T08:32:34.700Z,100982.78
2023-04-05T08:35:01.914Z,100972.25
2023-04-05T08:37:29.050Z,100983.75
2023-04-05T08:39:56.097Z,100977.47
2023-04-05T08:42:53.344Z,100980.13
2023-04-05T08:45:22.854Z,100973.13
2023-04-05T08:47:52.835Z,100965.97
2023-04-05T08:50:19.883Z,100965.97
2023-04-05T08:52:50.354Z,100970.34
2023-04-05T08:55:17.669Z,100965.03
2023-04-05T08:57:50.764Z,100974.72
2023-04-05T09:00:19.434Z,100968.53
2023-04-05T09:02:51.777Z,100969.41
2023-04-05T09:05:21.575Z,100970.34
2023-04-05T09:07:49.128Z,100961.41
2023-04-05T09:10:18.974Z,100967.59
2023-04-05T09:12:46.536Z,100971.09
2023-04-05T09:15:15.525Z,100975.47
2023-04-05T09:17:44.087Z,100979.94
2023-04-05T09:20:11.127Z,100976.31
2023-04-05T09:22:46.407Z,100972.06
2023-04-05T09:25:38.603Z,100972.06
2023-04-05T09:28:12.653Z,100979.06
2023-04-05T09:30:45.743Z,100976.41
2023-04-05T09:33:19.102Z,100966.75
2023-04-05T09:35:51.741Z,100972.91
2023-04-05T09:38:18.929Z,100969.41
2023-04-05T09:40:48.695Z,100970.34
2023-04-05T09:43:42.253Z,100970.25
2023-04-05T09:46:40.443Z,100964.06
2023-04-05T09:49:09.806Z,100969.47
2023-04-05T09:51:38.689Z,100965.13
2023-04-05T09:54:11.839Z,100972.13
2023-04-05T09:56:53.841Z,100967.88
2023-04-05T09:59:22.221Z,100974.06
2023-04-05T10:01:52.910Z,100974.91
2023-04-05T10:04:20.278Z,100973.94
2023-04-05T10:06:47.437Z,100973.00
2023-04-05T10:09:15.683Z,100972.25
2023-04-05T10:11:45.133Z,100971.41
2023-04-05T10:14:12.187Z,100974.91
2023-04-05T10:16:58.710Z,100968.84
2023-04-05T10:19:52.392Z,100967.13
2023-04-05T10:22:33.768Z,100970.84
2023-04-05T10:25:08.088Z,100969.91
2023-04-05T10:27:48.919Z,100970.75
2023-04-05T10:30:17.241Z,100967.25
2023-04-05T10:33:11.097Z,100962.69
2023-04-05T10:36:08.986Z,100958.22
2023-04-05T10:38:54.676Z,100960.97
2023-04-05T10:41:22.388Z,100958.28
2023-04-05T10:43:52.292Z,100959.28
2023-04-05T10:46:24.295Z,100955.75
2023-04-05T10:48:59.683Z,100954.03
2023-04-05T10:51:27.277Z,100942.66
2023-04-05T10:53:56.749Z,100949.88
2023-04-05T10:56:25.601Z,100949.03
2023-04-05T10:58:54.642Z,100949.13
2023-04-05T11:01:23.208Z,100946.44
2023-04-05T11:03:52.939Z,100948.16
2023-04-05T11:06:26.066Z,100953.50
2023-04-05T11:09:01.146Z,100946.56
2023-04-05T11:11:39.020Z,100951.03
2023-04-05T11:14:18.225Z,100955.41
2023-04-05T11:16:48.552Z,100949.94
2023-04-05T11:19:18.917Z,100941.91
2023-04-05T11:21:46.613Z,100941.38
2023-04-05T11:24:18.357Z,100942.31
2023-04-05T11:26:48.140Z,100938.72
2023-04-05T11:29:18.299Z,100937.84
2023-04-05T11:32:00.004Z,100934.22
2023-04-05T11:34:27.123Z,100937.84
2023-04-05T11:36:54.363Z,100934.31
2023-04-05T11:39:24.297Z,100931.78
2023-04-05T11:42:04.693Z,100920.38
2023-04-05T11:44:49.299Z,100928.53
2023-04-05T11:47:22.189Z,100920.56
2023-04-05T11:49:52.769Z,100928.53
2023-04-05T11:52:22.204Z,100923.16
2023-04-05T11:54:51.860Z,100923.34
2023-04-05T11:57:23.534Z,100915.25
2023-04-05T11:59:52.433Z,100920.13
2023-04-05T12:02:20.679Z,100918.31
2023-04-05T12:04:58.109Z,100917.09
2023-04-05T12:07:29.767Z,100914.63
2023-04-05T12:10:05.174Z,100910.78
2023-04-05T12:12:40.154Z,100911.91
2023-04-05T12:15:14.928Z,100913.25
2023-04-05T12:17:54.660Z,100910.88
2023-04-05T12:20:26.614Z,100909.56
2023-04-05T12:22:56.219Z,100904.75
2023-04-05T12:25:24.049Z,100893.56
2023-04-05T12:27:51.220Z,100897.31
2023-04-05T12:30:23.316Z,100893.94
2023-04-05T12:32:57.817Z,100892.50
2023-04-05T12:35:33.261Z,100894.50
2023-04-05T12:38:06.142Z,100895.44
2023-04-05T12:40:35.804Z,100897.16
2023-04-05T12:43:04.967Z,100902.53
2023-04-05T12:45:40.855Z,100901.69
2023-04-05T12:48:11.436Z,100901.03
2023-04-05T12:50:44.235Z,100899.16
2023-04-05T12:53:24.163Z,100891.19
2023-04-05T12:55:56.029Z,100888.91
2023-04-05T12:58:38.447Z,100885.78
2023-04-05T13:01:06.103Z,100885.19
2023-04-05T13:03:33.450Z,100883.06
2023-04-05T13:06:04.337Z,100886.28
2023-04-05T13:08:31.331Z,100887.94
2023-04-05T13:10:58.690Z,100887.44
2023-04-05T13:13:25.829Z,100885.53
2023-04-05T13:15:53.130Z,100884.66
2023-04-05T13:18:20.999Z,100890.09
2023-04-05T13:20:48.290Z,100883.81
2023-04-05T13:23:15.403Z,100888.25
2023-04-05T13:25:45.874Z,100887.25
2023-04-05T13:28:12.962Z,100879.91
2023-04-05T13:30:40.134Z,100879.06
2023-04-05T13:33:07.308Z,100878.00
2023-04-05T13:35:34.577Z,100876.88
2023-04-05T13:38:04.694Z,100874.09
2023-04-05T13:40:32.775Z,100870.16
2023-04-05T13:43:00.230Z,100872.06
2023-04-05T13:45:28.521Z,100865.78
2023-04-05T13:47:56.485Z,100855.13
2023-04-05T13:50:24.289Z,100847.28
2023-04-05T13:52:52.587Z,100849.09
2023-04-05T13:55:20.106Z,100845.56
2023-04-05T13:57:47.511Z,100844.75
2023-04-05T14:00:15.022Z,100836.97
2023-04-05T14:02:42.849Z,100838.84
2023-04-05T14:05:10.471Z,100844.16
2023-04-05T14:07:37.748Z,100846.63
2023-04-05T14:10:06.928Z,100841.63
2023-04-05T14:12:34.717Z,100841.63
2023-04-05T14:15:01.938Z,100841.91
2023-04-05T14:17:29.094Z,100833.53
2023-04-05T14:19:57.847Z,100832.78
2023-04-05T14:22:25.481Z,100832.59
2023-04-05T14:24:52.712Z,100827.09
2023-04-05T14:27:24.490Z,100831.22
2023-04-05T14:29:52.925Z,100824.31
2023-04-05T14:32:20.159Z,100834.75
2023-04-05T14:34:47.443Z,100831.47
2023-04-05T14:37:15.532Z,100827.94
2023-04-05T14:39:43.418Z,100819.88
2023-04-05T14:42:10.707Z,100817.88
2023-04-05T14:44:38.034Z,100817.56
2023-04-05T14:47:05.386Z,100818.97
2023-04-05T14:49:32.489Z,100817.53
2023-04-05T14:51:59.649Z,100807.25
2023-04-05T14:54:26.936Z,100811.31
2023-04-05T14:56:54.066Z,100806.63
2023-04-05T14:59:21.346Z,100807.28
2023-04-05T15:01:48.945Z,100809.72
2023-04-05T15:04:16.103Z,100809.22
2023-04-05T15:06:43.300Z,100801.97
2023-04-05T15:09:10.400Z,100805.28
2023-04-05T15:11:39.745Z,100795.50
2023-04-05T15:14:09.889Z,100796.44
2023-04-05T15:16:44.676Z,100791.25
2023-04-05T15:19:11.779Z,100789.63
2023-04-05T15:21:40.797Z,100792.78
2023-04-05T15:24:08.179Z,100791.50
2023-04-05T15:26:35.347Z,100784.69
2023-04-05T15:29:02.640Z,100787.34
2023-04-05T15:31:29.978Z,100800.84
2023-04-05T15:33:57.267Z,100795.31
2023-04-05T15:36:26.523Z,100790.84
2023-04-05T15:38:53.941Z,100785.75
2023-04-05T15:41:21.152Z,100794.47
2023-04-05T15:43:48.507Z,100794.56
2023-04-05T15:46:15.955Z,100783.09
2023-04-05T15:48:44.357Z,100784.06
2023-04-05T15:51:12.565Z,100777.84
2023-04-05T15:53:39.758Z,100786.59
2023-04-05T15:56:07.160Z,100777.69
2023-04-05T15:58:34.409Z,100772.44
2023-04-05T16:01:01.783Z,100768.97
2023-04-05T16:03:29.188Z,100764.69
2023-04-05T16:05:57.874Z,100758.38
2023-04-05T16:08:25.590Z,100767.53
2023-04-05T16:10:52.772Z,100770.28
2023-04-05T16:13:19.924Z,100764.97
2023-04-05T16:15:47.081Z,100764.03
2023-04-05T16:18:14.784Z,100764.03
2023-04-05T16:20:42.588Z,100766.94
2023-04-05T16:23:09.697Z,100771.81
2023-04-05T16:25:36.888Z,100776.22
2023-04-05T16:28:06.934Z,100771.75
2023-04-05T16:30:34.212Z,100763.72
2023-04-05T16:33:01.520Z,100762.38
2023-04-05T16:35:28.567Z,100753.06
2023-04-05T16:37:55.696Z,100753.41
2023-04-05T16:40:23.547Z,100744.06
2023-04-05T16:42:50.789Z,100739.22
2023-04-05T16:45:17.797Z,100743.47
2023-04-05T16:47:44.916Z,100748.59
2023-04-05T16:50:12.050Z,100745.72
2023-04-05T16:52:39.159Z,100740.09
2023-04-05T16:55:06.912Z,100745.06
2023-04-05T16:57:34.060Z,100747.31
2023-04-05T17:00:01.210Z,100737.53
2023-04-05T17:02:28.609Z,100737.09
2023-04-05T17:04:55.872Z,100737.53
2023-04-05T17:07:22.965Z,100733.69
2023-04-05T17:09:50.001Z,100733.41
2023-04-05T17:12:17.048Z,100734.78
2023-04-05T17:14:44.106Z,100737.19
2023-04-05T17:17:11.245Z,100729.78
2023-04-05T17:19:38.347Z,100731.97
2023-04-05T17:22:05.772Z,100738.81
2023-04-05T17:24:37.297Z,100742.94
2023-04-05T17:27:04.983Z,100738.38
2023-04-05T17:29:32.356Z,100736.25
2023-04-05T17:31:59.486Z,100740.06
2023-04-05T17:34:26.625Z,100734.31
2023-04-05T17:36:53.701Z,100735.91
2023-04-05T17:39:21.076Z,100741.13
2023-04-05T17:41:48.205Z,100743.88
2023-04-05T17:44:16.104Z,100736.25
2023-04-05T17:46:51.001Z,100739.75
2023-04-05T17:49:21.417Z,100735.38
2023-04-05T17:51:48.964Z,100738.38
2023-04-05T17:54:16.005Z,100732.22
2023-04-05T17:56:43.272Z,100737.53
2023-04-05T17:59:10.311Z,100729.41
2023-04-05T18:01:37.977Z,100728.59
2023-04-05T18:04:06.285Z,100724.09
2023-04-05T18:06:33.734Z,100730.06
2023-04-05T18:09:01.140Z,100726.53
2023-04-05T18:11:28.263Z,100728.13
2023-04-05T18:13:55.500Z,100724.53
2023-04-05T18:16:23.147Z,100729.41
2023-04-05T18:18:50.319Z,100730.66
2023-04-05T18:21:17.523Z,100723.41
2023-04-05T18:23:44.618Z,100719.69
2023-04-05T18:26:14.157Z,100727.66
2023-04-05T18:28:41.184Z,100725.13
2023-04-05T18:31:12.411Z,100719.81
2023-04-05T18:33:41.231Z,100724.91
2023-04-05T18:36:08.830Z,100723.19
2023-04-05T18:38:36.177Z,100732.91
2023-04-05T18:41:04.509Z,100731.91
2023-04-05T18:43:32.144Z,100735.22
2023-04-05T18:45:59.470Z,100730.53
2023-04-05T18:48:26.895Z,100732.72
2023-04-05T18:50:54.806Z,100728.66
2023-04-05T18:53:22.586Z,100727.97
2023-04-05T18:55:53.801Z,100728.88
2023-04-05T18:58:22.152Z,100727.56
2023-04-05T19:00:50.538Z,100728.72
2023-04-05T19:03:18.980Z,100727.19
2023-04-05T19:05:53.786Z,100731.09
2023-04-05T19:08:21.176Z,100723.59
2023-04-05T19:10:48.607Z,100731.88
2023-04-05T19:13:16.060Z,100727.03
2023-04-05T19:15:43.742Z,100723.16
2023-04-05T19:18:11.778Z,100732.75
2023-04-05T19:20:39.120Z,100729.38
2023-04-05T19:23:09.098Z,100731.56
2023-04-05T19:25:37.323Z,100726.84
2023-04-05T19:28:04.993Z,100725.03
2023-04-05T19:30:32.280Z,100728.69
2023-04-05T19:32:59.756Z,100731.97
2023-04-05T19:35:27.443Z,100737.06
2023-04-05T19:37:55.817Z,100733.44
2023-04-05T19:40:27.505Z,100733.97
2023-04-05T19:42:57.147Z,100731.78
2023-04-05T19:45:30.915Z,100737.69
2023-04-05T19:47:59.799Z,100733.94
2023-04-05T19:50:33.375Z,100737.34
2023-04-05T19:53:00.762Z,100734.53
2023-04-05T19:55:33.941Z,100732.59
2023-04-05T19:58:03.474Z,100732.25
2023-04-05T20:00:40.352Z,100738.31
2023-04-05T20:03:41.363Z,100734.69
2023-04-05T20:06:13.858Z,100727.41
2023-04-05T20:08:42.753Z,100729.81
2023-04-05T20:11:19.143Z,100730.53
2023-04-05T20:13:55.672Z,100725.91
2023-04-05T20:16:37.823Z,100727.63
2023-04-05T20:19:07.875Z,100720.19
2023-04-05T20:21:37.839Z,100720.19
2023-04-05T20:24:09.480Z,100721.28
2023-04-05T20:26:40.814Z,100724.34
2023-04-05T20:29:10.389Z,100724.47
2023-04-05T20:31:40.398Z,100724.00
2023-04-05T20:34:11.413Z,100732.97
2023-04-05T20:36:50.450Z,100721.44
2023-04-05T20:39:17.896Z,100725.09
2023-04-05T20:41:46.885Z,100721.56
2023-04-05T20:44:14.619Z,100720.34
2023-04-05T20:46:42.410Z,100715.13
2023-04-05T20:49:10.279Z,100722.28
2023-04-05T20:51:38.831Z,100712.56
2023-04-05T20:54:07.933Z,100709.09
2023-04-05T20:56:35.609Z,100714.53
2023-04-05T20:59:04.310Z,100712.09
2023-04-05T21:01:32.069Z,100705.91
2023-04-05T21:04:00.594Z,100709.31
2023-04-05T21:06:28.379Z,100701.66
2023-04-05T21:08:56.357Z,100705.06
2023-04-05T21:11:23.547Z,100707.00
2023-04-05T21:13:50.785Z,100705.44
2023-04-05T21:16:17.896Z,100706.75
2023-04-05T21:18:45.734Z,100699.97
2023-04-05T21:21:13.031Z,100695.25
2023-04-05T21:23:40.595Z,100707.69
2023-04-05T21:26:08.298Z,100702.84
2023-04-05T21:28:35.657Z,100701.81
2023-04-05T21:31:03.141Z,100701.78
2023-04-05T21:33:30.354Z,100698.19
2023-04-05T21:35:57.469Z,100698.91
2023-04-05T21:38:24.894Z,100698.00
2023-04-05T21:40:52.174Z,100686.31
2023-04-05T21:43:19.153Z,100697.56
2023-04-05T21:45:47.097Z,100699.06
2023-04-05T21:48:14.168Z,100698.56
2023-04-05T21:50:41.299Z,100696.34
2023-04-05T21:53:10.064Z,100696.69
2023-04-05T21:55:37.925Z,100690.09
2023-04-05T21:58:05.120Z,100692.16
2023-04-05T22:00:32.483Z,100688.97
2023-04-05T22:02:59.600Z,100694.72
2023-04-05T22:05:38.047Z,100685.25
2023-04-05T22:08:07.329Z,100685.56
2023-04-05T22:10:37.029Z,100686.84
2023-04-05T22:13:04.268Z,100681.00
2023-04-05T22:15:31.546Z,100668.91
2023-04-05T22:17:58.811Z,100670.91
2023-04-05T22:20:25.810Z,100662.28
2023-04-05T22:22:53.364Z,100662.63
2023-04-05T22:25:22.111Z,100667.31
2023-04-05T22:27:49.102Z,100661.47
2023-04-05T22:30:16.336Z,100660.75
2023-04-05T22:32:43.788Z,100660.09
2023-04-05T22:35:11.702Z,100658.50
2023-04-05T22:37:41.047Z,100657.84
2023-04-05T22:40:08.599Z,100656.38
2023-04-05T22:42:35.826Z,100654.78
2023-04-05T22:45:05.644Z,100650.34
2023-04-05T22:47:32.813Z,100648.84
2023-04-05T22:49:59.946Z,100642.91
2023-04-05T22:52:27.048Z,100649.38
2023-04-05T22:54:54.022Z,100640.66
2023-04-05T22:57:21.090Z,100636.28
2023-04-05T22:59:48.243Z,100640.88
2023-04-05T23:02:15.259Z,100633.97
2023-04-05T23:04:42.718Z,100629.72
2023-04-05T23:07:12.616Z,100635.25
2023-04-05T23:09:39.701Z,100629.94
2023-04-05T23:12:07.345Z,100638.09
2023-04-05T23:14:34.365Z,100632.06
2023-04-05T23:17:01.913Z,100632.13
2023-04-05T23:19:29.376Z,100633.13
2023-04-05T23:21:56.577Z,100628.00
2023-04-05T23:24:23.711Z,100626.31
2023-04-05T23:26:50.739Z,100620.34
2023-04-05T23:29:21.088Z,100624.06
2023-04-05T23:31:48.791Z,100615.22
2023-04-05T23:34:16.446Z,100615.31
2023-04-05T23:36:43.555Z,100615.44
2023-04-05T23:39:10.925Z,100614.56
2023-04-05T23:41:38.257Z,100611.19
2023-04-05T23:44:05.687Z,100613.97
2023-04-05T23:46:33.770Z,100606.94
2023-04-05T23:49:00.742Z,100605.22
2023-04-05T23:51:27.982Z,100608.84
2023-04-05T23:53:55.441Z,100607.25
2023-04-05T23:56:22.449Z,100610.97
2023-04-05T23:58:49.497Z,100610.22
